• Join FlightAware (Why Join?)
  • Login
  • US Flag 
02:55PM EST


 

Airport Tracker/Info


-or-


 

Live Flight TrackerFlight Track Log ✈ ASQ5941 ✈ 21-May-2013 ✈ KORD - KAVP

Flight Track Log - Related Links

Times and Time Zones

All times are in EDT time to prevent confusion due to time zone crossing. See the ASQ5941 flight status page for this flight to view local times or setup timezone preferences in your user account.

Time Position Orientation Groundspeed Altitude Reporting Facility
EDT Latitude Longitude Course Direction KTS MPH feet Rate Location/Type
04:24PM 41.9333 -87.9167 80° East 155 178 1,900  Level Chicago TRACON
04:25PM 41.9000 -87.8667 132° Southeast 227 261 3,400 1,080 Climbing Chicago TRACON
04:26PM 41.9086 -87.8325 71° East 262 302 3,600 960 Climbing Chicago Center
04:27PM 41.9189 -87.7036 84° East 280 322 5,000 1,260 Climbing Chicago Center
04:28PM 42.0617 -87.2907 78° East  Level FlightAware Approximate
04:28PM 41.9378 -87.5953 77° East 301 346 6,300  Level Chicago Center
04:29PM 42.0856 -87.1362 77° East  Level FlightAware Approximate
04:29PM 41.9731 -87.4825 67° East 322 371 8,200  Level Chicago Center
04:30PM 42.1017 -86.9864 80° East  Level FlightAware Approximate
04:30PM 42.0106 -87.3686 66° East 332 382 10,100  Level Chicago Center
04:31PM 42.0494 -87.2511 66° East 342 394 12,200 1,740 Climbing Chicago Center
04:32PM 42.0889 -87.1325 66° East 347 399 13,800 1,200 Climbing Chicago Center
04:33PM 42.1142 -86.9669 78° East 377 434 14,700 720 Climbing Chicago Center
04:34PM 42.1197 -86.8131 87° East 405 466 15,300 780 Climbing Chicago Center
04:35PM 42.1258 -86.6481 87° East 417 480 16,400 960 Climbing Chicago Center
04:36PM 42.1328 -86.4872 87° East 428 493 17,400 960 Climbing Chicago Center
04:37PM 42.1375 -86.3286 88° East 426 490 18,500 960 Climbing Chicago Center
04:38PM 42.1428 -86.1675 87° East 429 494 19,500 1,200 Climbing Chicago Center
04:39PM 42.1433 -86.0067 90° East 430 495 21,000 1,740 Climbing Chicago Center
04:40PM 42.1428 -85.8336 90° East 419 482 23,200 1,860 Climbing Chicago Center
04:41PM 42.1408 -85.6872 91° East 405 466 24,900 840 Climbing Chicago Center
04:43PM 42.1389 -85.5389 91° East 399 459 25,000  Climbing Chicago Center
04:44PM 42.1372 -85.3725 91° East 429 494 25,000  Level Chicago Center
04:45PM 42.1350 -85.1619 91° East 466 536 25,000  Level Chicago Center
04:46PM 42.1328 -84.9861 91° East 471 542 25,000  Level Chicago Center
04:47PM 42.1283 -84.8106 92° East 472 543 25,000  Level Chicago Center
04:48PM 42.1231 -84.6358 92° East 470 541 25,000  Level Chicago Center
04:49PM 42.1178 -84.4619 92° East 468 539 25,000  Level Chicago Center
04:50PM 42.1089 -84.2808 94° East 470 541 25,000  Level Cleveland Center
04:51PM 42.1039 -84.1042 92° East 465 535 25,000  Level Cleveland Center
04:52PM 42.0967 -83.9275 93° East 465 535 25,000  Level Cleveland Center
04:53PM 42.0914 -83.7508 92° East 470 541 25,000  Level Cleveland Center
04:54PM 42.0819 -83.5572 94° East 470 541 25,000  Level Cleveland Center
04:55PM 42.0761 -83.3778 92° East 477 549 25,000  Level Cleveland Center
04:56PM 42.0694 -83.2153 93° East 477 549 25,000  Level Cleveland Center
04:57PM 42.0628 -83.0389 93° East 477 549 25,000  Level Cleveland Center
04:58PM 42.0542 -82.8594 94° East 482 555 25,000  Level Cleveland Center
04:59PM 42.0472 -82.6803 93° East 482 555 25,000  Level Cleveland Center
05:00PM 42.0397 -82.5067 93° East 482 555 25,000  Level Cleveland Center
05:01PM 42.0300 -82.3303 94° East 482 555 25,000  Level Cleveland Center
05:02PM 42.0181 -82.1539 95° East 482 555 25,000  Level Cleveland Center
05:03PM 42.0119 -81.9806 93° East 476 548 25,000  Level Cleveland Center
05:04PM 42.0017 -81.7847 94° East 476 548 25,000  Level Cleveland Center
05:05PM 41.9928 -81.6114 94° East 476 548 25,000  Level Cleveland Center
05:06PM 41.9819 -81.4350 95° East 476 548 25,000  Level Cleveland Center
05:07PM 41.9706 -81.2589 95° East 476 548 25,000  Level Cleveland Center
05:08PM 41.9631 -81.0831 93° East 476 548 25,000  Level Cleveland Center
05:09PM 41.9511 -80.9069 95° East 476 548 25,000  Level Cleveland Center
05:10PM 41.9392 -80.7339 95° East 471 542 25,000  Level Cleveland Center
05:11PM 41.9308 -80.5803 94° East 460 529 25,000  Level Cleveland Center
05:12PM 41.9181 -80.4128 96° East 460 529 25,000  Level Cleveland Center
05:13PM 41.9072 -80.2428 95° East 460 529 25,000  Level Cleveland Center
05:14PM 41.8942 -80.0728 96° East 460 529 25,000  Level Cleveland Center
05:15PM 41.8850 -79.9053 94° East 460 529 25,000  Level Cleveland Center
05:16PM 41.8714 -79.7328 96° East 460 529 25,000  Level Cleveland Center
05:17PM 41.8594 -79.5461 95° East 460 529 25,000  Level Cleveland Center
05:18PM 41.8472 -79.3761 95° East 460 529 25,000  Level Cleveland Center
05:19PM 41.8353 -79.2203 96° East 460 529 25,000  Level Cleveland Center
05:20PM 41.8228 -79.0533 96° East 460 529 25,000  Level Cleveland Center
05:21PM 41.8053 -78.8644 97° East 460 529 25,000 -240 Level Cleveland Center
05:22PM 41.7903 -78.6950 97° East 460 529 24,600 -720 Descending Cleveland Center
05:23PM 41.7894 -78.5250 90° East 460 529 23,600 -840 Descending Cleveland Center
05:24PM 41.7944 -78.3522 88° East 460 529 23,000 -300 Descending Cleveland Center
05:25PM 41.7972 -78.1822 89° East 460 529 23,000  Level Cleveland Center
05:27PM 41.8017 -77.8581 89° East 444 511 23,000  Level New York Center
05:28PM 41.7989 -77.6908 91° East 444 511 23,000  Level New York Center
05:29PM 41.7978 -77.5292 90° East 444 511 23,000  Level New York Center
05:30PM 41.7956 -77.3453 91° East 444 511 23,000  Level New York Center
05:31PM 41.7919 -77.1808 92° East 449 517 23,000 -720 Level New York Center
05:32PM 41.7853 -77.0328 93° East 443 510 21,600 -1,680 Descending New York Center
05:33PM 41.7689 -76.8697 98° East 443 510 19,700 -2,220 Descending New York Center
05:34PM 41.7211 -76.7042 111° Southeast 438 504 17,300 -2,220 Descending New York Center
05:35PM 41.6781 -76.5642 112° Southeast 421 484 15,400 -1,920 Descending New York Center
05:36PM 41.6406 -76.4306 111° Southeast 401 461 13,500 -1,920 Descending New York Center
05:37PM 41.6064 -76.3167 112° Southeast 376 433 11,600 -1,860 Descending New York Center
05:38PM 41.5667 -76.1886 112° Southeast 370 426 9,900 -1,380 Descending New York Center
05:39PM 41.5194 -76.0767 119° Southeast 333 383 9,000 -1,200 Descending New York Center
05:40PM 41.4811 -76.0044 125° Southeast 307 353 7,500 -1,740 Descending New York Center
05:41PM 41.4425 -75.8881 114° Southeast 291 335 5,600 -1,740 Descending New York Center
05:42PM 41.4364 -75.7853 95° East 273 314 4,100 -1,080 Descending New York Center
05:43PM 41.4278 -75.6933 97° East 259 298 3,500 -900 Descending New York Center
05:44PM 41.3953 -75.6714 153° Southeast 150 173 2,300 -1,080 Descending New York Center
05:45PM 41.3669 -75.6997 217° Southwest 100 115 1,400 -540 Descending New York Center
05:46PM 41.3444 -75.6900 162° South 100 115 1,300 -120 Descending New York Center